Observations for BOURNEMOUTH AIRPORT, United Kingdom (EGHH)

EGHH 182220Z 23014KT 9999 BKN048 18/15 Q1012
EGHH 182150Z 23013KT 9999 BKN048 19/15 Q1012
EGHH 182120Z 24013KT 9999 BKN048 18/15 Q1012
EGHH 182050Z 24013G23KT 9999 BKN048 18/15 Q1012 
EGHH 182020Z 23010KT 9999 BKN048 18/14 Q1012
EGHH 181950Z 23010KT 9999 BKN045 18/14 Q1012
EGHH 181920Z 23009KT 9999 BKN045 18/15 Q1012
EGHH 181820Z 23014G24KT 9999 FEW015 BKN040 18/15 Q1012  
EGHH 181750Z 24013G24KT 9999 FEW015 BKN040 18/15 Q1012  
EGHH 181720Z 23015KT 9999 SCT015 BKN040 18/15 Q1012 
EGHH 181650Z 24013KT 9999 SCT016 BKN041 19/15 Q1012 
EGHH 181620Z 24011KT 9999 FEW016 SCT036 BKN041 19/15 Q1012  
EGHH 181550Z 24012KT 9999 SCT015 BKN032 19/15 Q1012 
EGHH 181520Z 23012KT 9999 BKN017 BKN043 19/15 Q1012 
EGHH 181450Z 24013G24KT 9999 BKN016 BKN043 19/15 Q1012  
EGHH 181420Z 24015KT 9999 BKN016 BKN044 19/16 Q1012 
EGHH 181350Z 23012KT 9999 BKN016 BKN034 18/15 Q1012 
EGHH 181320Z 23014KT 9999 BKN016 BKN023 18/15 Q1012 
EGHH 181250Z 24011KT 9999 BKN016 BKN023 18/15 Q1011 
EGHH 181220Z 24014KT 9000 BKN016 18/16 Q1011
EGHH 181150Z 24014KT 9999 8000W BKN020 19/14 Q1011  
EGHH 181120Z 24014KT 9999 BKN024 19/14 Q1011
EGHH 181050Z 26015KT 9999 SCT023 BKN027 19/13 Q1010 
EGHH 181020Z 25016KT 9999 BKN021 20/15 Q1010
EGHH 180950Z 26016KT 9999 BKN020 18/14 Q1010
EGHH 180920Z 26020G30KT 9999 FEW012 BKN021 18/13 Q1009  
EGHH 180850Z 26016G26KT 9999 FEW012 BKN024 18/14 Q1009  
EGHH 180820Z 25017G27KT 9999 FEW012 SCT023 18/13 Q1008  
EGHH 180750Z 25022KT 9999 FEW012 BKN021 17/13 Q1007 
EGHH 180720Z 24021G34KT 9999 FEW012 BKN021 17/14 Q1007  
EGHH 180650Z 25019G29KT 9999 FEW012 SCT018 17/16 Q1006  
EGHH 180620Z 24020G30KT 9999 5000SW BKN012 17/15 Q1006  
EGHH 180550Z 24018G29KT 9999 SCT009 BKN011 17/15 Q1006  
EGHH 180520Z 24017G31KT 6000 SCT009 BKN011 17/15 Q1006  
EGHH 180450Z 23014KT 7000 -RA BKN009 17/16 Q1006